Time;durP1;ratioP1;P1;durP2;ratioP2;P2;SDS_P1;SDS_P2;PMS_P1;PMS_P2;Temp;Humidity;BMP_temperature;BMP_pressure;BME280_temperature;BME280_humidity;BME280_pressure;Samples;Min_cycle;Max_cycle;Signal;HPM_P1;HPM_P2
2024/01/01 00:01:43;;;;;;;28.47;13.40;;;;;;;7.79;89.63;95470.78;5131563;28;20467;-56
2024/01/01 00:04:12;;;;;;;12.37;10.70;;;;;;;8.27;89.15;95546.53;5132226;27;20499;-57
2024/01/01 00:06:41;;;;;;;25.60;10.10;;;;;;;8.01;91.48;95548.06;5132052;28;20551;-57
2024/01/01 00:09:09;;;;;;;20.30;12.00;;;;;;;7.99;91.99;95550.16;5131934;27;20438;-56
2024/01/01 00:11:38;;;;;;;25.00;10.07;;;;;;;7.58;92.69;95496.13;5105475;28;20868;-57
2024/01/01 00:14:10;;;;;;;7.37;6.70;;;;;;;7.96;91.85;95539.28;5131808;28;20431;-56
2024/01/01 00:16:41;;;;;;;18.83;7.70;;;;;;;8.07;91.30;95544.44;5131994;27;20438;-56
2024/01/01 00:19:09;;;;;;;5.87;4.80;;;;;;;7.84;93.19;95542.06;5131677;28;20609;-56
2024/01/01 00:21:39;;;;;;;9.10;5.20;;;;;;;7.70;95.00;95535.56;5132073;28;20438;-56
2024/01/01 00:24:08;;;;;;;19.70;8.37;;;;;;;7.69;94.05;95526.84;5131636;27;20474;-56
2024/01/01 00:26:36;;;;;;;5.40;4.90;;;;;;;7.85;92.79;95548.13;5132112;28;20466;-56
2024/01/01 00:29:05;;;;;;;8.90;5.27;;;;;;;7.82;91.68;95553.91;5131156;27;20434;-57
2024/01/01 00:31:34;;;;;;;6.23;5.57;;;;;;;7.77;92.35;95552.00;5131904;28;20438;-56
2024/01/01 00:34:04;;;;;;;7.90;5.23;;;;;;;7.75;92.07;95540.91;5131898;28;20434;-57
2024/01/01 00:36:33;;;;;;;10.30;3.90;;;;;;;7.80;92.56;95553.34;5131282;28;20993;-56
2024/01/01 00:39:01;;;;;;;13.30;7.37;;;;;;;7.76;93.55;95558.34;5131912;27;20466;-57
2024/01/01 00:41:30;;;;;;;6.23;3.00;;;;;;;7.84;93.78;95554.47;5132337;28;20828;-57
2024/01/01 00:43:59;;;;;;;7.13;2.70;;;;;;;6.96;93.54;95415.69;5131902;27;20468;-56
2024/01/01 00:46:27;;;;;;;4.50;3.90;;;;;;;7.52;96.14;95547.19;5131248;27;20851;-55
2024/01/01 00:48:56;;;;;;;15.73;4.17;;;;;;;7.43;98.63;95539.97;5131578;27;20452;-56
2024/01/01 00:51:27;;;;;;;4.00;3.67;;;;;;;7.61;98.85;95563.41;5130799;27;20438;-55
2024/01/01 00:53:56;;;;;;;9.10;2.87;;;;;;;7.58;99.30;95554.16;5131723;28;20442;-56
2024/01/01 00:56:24;;;;;;;2.60;2.40;;;;;;;7.71;97.63;95553.00;5131469;28;20461;-56
2024/01/01 00:58:53;;;;;;;1.63;1.53;;;;;;;7.58;97.79;95548.06;5130842;27;20466;-56
2024/01/01 01:01:21;;;;;;;3.60;3.43;;;;;;;7.59;98.56;95554.94;5134362;27;20445;-57
2024/01/01 01:03:50;;;;;;;3.40;2.07;;;;;;;7.24;99.93;95497.25;5135306;27;20446;-57
2024/01/01 01:06:20;;;;;;;3.33;1.80;;;;;;;7.57;99.40;95547.28;5135324;27;20521;-56
2024/01/01 01:08:54;;;;;;;2.30;1.33;;;;;;;6.99;100.00;95470.56;5134741;27;20474;-56
2024/01/01 01:11:23;;;;;;;3.33;1.30;;;;;;;7.37;100.00;95552.28;5133726;27;20488;-56
2024/01/01 01:13:52;;;;;;;3.03;2.40;;;;;;;7.33;100.00;95530.09;5134556;27;20438;-56
2024/01/01 01:16:23;;;;;;;2.97;2.60;;;;;;;7.00;100.00;95472.97;5134743;27;20438;-57
2024/01/01 01:18:52;;;;;;;3.10;1.53;;;;;;;7.48;99.18;95540.84;5134530;27;20561;-54
2024/01/01 01:21:21;;;;;;;7.00;3.07;;;;;;;7.18;98.63;95495.59;5108308;27;20474;-55
2024/01/01 01:23:49;;;;;;;2.40;2.20;;;;;;;7.42;98.59;95543.63;5134048;27;20434;-55
2024/01/01 01:26:19;;;;;;;5.13;3.60;;;;;;;7.39;97.69;95538.84;5134693;27;20495;-55
2024/01/01 01:28:48;;;;;;;1.93;1.60;;;;;;;7.37;96.87;95541.72;5134178;27;20450;-55
2024/01/01 01:31:17;;;;;;;14.80;3.03;;;;;;;7.35;97.16;95538.53;5134393;27;20462;-56
2024/01/01 01:33:46;;;;;;;1.90;1.80;;;;;;;7.16;100.00;95537.19;5134559;27;20442;-56
2024/01/01 01:36:15;;;;;;;2.47;2.27;;;;;;;7.25;99.04;95534.97;5134444;27;20839;-56
2024/01/01 01:38:43;;;;;;;2.70;2.20;;;;;;;7.22;96.90;95536.25;5134515;27;20468;-56
2024/01/01 01:41:12;;;;;;;3.47;3.27;;;;;;;7.17;97.32;95524.81;5134869;27;20793;-55
2024/01/01 01:43:42;;;;;;;2.30;2.20;;;;;;;7.11;96.75;95526.59;5134693;27;20448;-55
2024/01/01 01:46:13;;;;;;;1.90;1.80;;;;;;;7.08;96.42;95521.81;5134095;27;20438;-55
2024/01/01 01:48:41;;;;;;;2.67;2.47;;;;;;;6.89;96.47;95496.75;5134224;27;20427;-56
2024/01/01 01:51:11;;;;;;;2.83;2.73;;;;;;;7.02;95.76;95534.13;5134373;27;20984;-55
2024/01/01 01:53:40;;;;;;;2.43;2.33;;;;;;;6.98;96.13;95526.94;5133849;27;20442;-57
2024/01/01 01:56:09;;;;;;;5.73;4.20;;;;;;;6.91;95.71;95528.94;5133387;27;20525;-56
2024/01/01 01:58:40;;;;;;;8.47;3.00;;;;;;;6.84;95.95;95525.66;5107025;27;20814;-55
2024/01/01 02:01:11;;;;;;;8.77;4.03;;;;;;;6.80;95.68;95522.72;5134121;27;20479;-55
2024/01/01 02:03:40;;;;;;;9.83;4.73;;;;;;;6.67;99.46;95501.19;5134099;27;20558;-55
2024/01/01 02:06:08;;;;;;;6.57;6.03;;;;;;;6.81;96.84;95512.97;5133739;27;20446;-55
2024/01/01 02:08:37;;;;;;;9.30;5.83;;;;;;;6.77;96.54;95514.50;5134242;27;20521;-56
2024/01/01 02:11:06;;;;;;;4.33;3.40;;;;;;;6.50;95.83;95471.41;5131500;27;20442;-55
2024/01/01 02:13:34;;;;;;;4.50;3.47;;;;;;;6.33;96.30;95453.78;5123465;27;20442;-56
2024/01/01 02:16:03;;;;;;;4.03;3.73;;;;;;;6.23;95.76;95434.38;5132937;27;20441;-56
2024/01/01 02:18:33;;;;;;;9.63;5.10;;;;;;;6.61;97.33;95505.56;5134089;27;20487;-55
2024/01/01 02:21:02;;;;;;;6.97;6.47;;;;;;;6.49;96.80;95488.25;5133960;27;20474;-56
2024/01/01 02:23:32;;;;;;;4.27;3.37;;;;;;;6.57;97.31;95506.28;5132428;27;20434;-56
2024/01/01 02:26:00;;;;;;;4.80;3.50;;;;;;;6.45;96.79;95484.50;5133053;27;20430;-56
2024/01/01 02:28:29;;;;;;;3.83;3.47;;;;;;;6.49;96.67;95502.22;5132886;27;20960;-55
2024/01/01 02:30:58;;;;;;;18.50;4.77;;;;;;;6.08;95.54;95437.56;5132780;27;20515;-55
2024/01/01 02:33:26;;;;;;;5.60;3.53;;;;;;;6.44;95.88;95503.97;5133343;27;20523;-55
2024/01/01 02:35:55;;;;;;;8.07;7.27;;;;;;;6.39;97.03;95492.31;5133055;27;20466;-55
2024/01/01 02:38:24;;;;;;;6.10;5.57;;;;;;;6.30;97.62;95493.72;5133768;27;20480;-55
2024/01/01 02:40:54;;;;;;;12.30;3.20;;;;;;;6.31;97.10;95503.22;5126158;27;20526;-55
2024/01/01 02:43:22;;;;;;;11.03;5.53;;;;;;;6.27;96.50;95498.69;5128082;27;20434;-55
2024/01/01 02:45:51;;;;;;;2.90;1.90;;;;;;;6.24;96.71;95494.69;5133587;27;20427;-55
2024/01/01 02:48:20;;;;;;;20.53;4.70;;;;;;;5.85;96.11;95437.69;5133657;27;20509;-55
2024/01/01 02:50:48;;;;;;;4.33;4.00;;;;;;;6.04;96.70;95470.66;5133343;27;20434;-55
2024/01/01 02:53:17;;;;;;;5.23;4.73;;;;;;;6.17;98.58;95491.41;5133051;27;20462;-55
2024/01/01 02:55:46;;;;;;;4.53;4.33;;;;;;;6.10;98.04;95474.97;5133113;27;20426;-56
2024/01/01 02:58:16;;;;;;;2.70;2.60;;;;;;;6.17;97.13;95488.75;5133489;27;20467;-56
2024/01/01 03:00:47;;;;;;;2.43;2.33;;;;;;;6.14;98.24;95481.38;5132967;27;20478;-56
2024/01/01 03:03:16;;;;;;;5.23;3.87;;;;;;;6.05;99.04;95468.81;5133014;27;20431;-56
2024/01/01 03:05:45;;;;;;;4.60;2.87;;;;;;;5.79;98.64;95438.63;5133161;27;20435;-56
2024/01/01 03:08:14;;;;;;;6.53;4.20;;;;;;;5.74;98.74;95430.66;5131882;27;20435;-56
2024/01/01 03:10:42;;;;;;;5.60;2.50;;;;;;;5.72;98.63;95425.59;5133113;27;20491;-56
2024/01/01 03:13:11;;;;;;;4.63;4.23;;;;;;;5.71;97.97;95429.28;5133283;27;20453;-56
2024/01/01 03:15:41;;;;;;;2.07;1.40;;;;;;;5.95;98.87;95458.91;5132730;27;20496;-54
2024/01/01 03:18:12;;;;;;;3.13;2.97;;;;;;;5.99;98.69;95477.66;5132844;27;20443;-55
2024/01/01 03:20:41;;;;;;;6.77;4.37;;;;;;;5.98;97.66;95471.59;5132750;27;20462;-54
2024/01/01 03:23:09;;;;;;;4.20;2.07;;;;;;;5.93;97.17;95474.13;5132467;27;20438;-55
2024/01/01 03:25:38;;;;;;;1.23;1.20;;;;;;;5.96;97.75;95464.97;5132319;27;20526;-55
2024/01/01 03:28:07;;;;;;;1.13;1.03;;;;;;;5.86;98.20;95470.88;5132318;27;20474;-55
2024/01/01 03:30:36;;;;;;;2.37;2.17;;;;;;;5.42;99.69;95390.06;5131901;27;20951;-56
2024/01/01 03:33:06;;;;;;;5.67;3.43;;;;;;;5.90;99.96;95464.09;5132552;27;20855;-56
2024/01/01 03:35:35;;;;;;;4.30;2.10;;;;;;;5.95;98.88;95469.44;5131498;27;20443;-56
2024/01/01 03:38:04;;;;;;;1.60;1.50;;;;;;;5.50;96.86;95410.72;5132369;27;20434;-56
2024/01/01 03:40:33;;;;;;;6.40;3.10;;;;;;;5.89;96.68;95464.34;5131738;27;20849;-56
2024/01/01 03:43:02;;;;;;;2.90;2.67;;;;;;;5.86;98.36;95462.16;5131725;27;20438;-56
2024/01/01 03:45:31;;;;;;;8.60;2.97;;;;;;;5.86;97.92;95459.53;5132265;27;20466;-56
2024/01/01 03:47:59;;;;;;;2.70;2.50;;;;;;;5.84;98.22;95457.13;5119086;27;20492;-56
2024/01/01 03:50:30;;;;;;;3.87;3.53;;;;;;;5.86;98.19;95454.28;5131883;28;20938;-56
2024/01/01 03:52:58;;;;;;;2.70;2.40;;;;;;;5.60;100.00;95437.22;5131432;27;20905;-56
2024/01/01 03:55:27;;;;;;;2.83;1.57;;;;;;;5.68;100.00;95434.22;5131908;27;20491;-55
2024/01/01 03:57:56;;;;;;;2.97;2.67;;;;;;;5.74;99.44;95446.44;5131812;27;20438;-56
2024/01/01 04:00:26;;;;;;;4.60;2.33;;;;;;;5.52;98.62;95412.09;5131478;28;20979;-56
2024/01/01 04:02:55;;;;;;;1.60;1.50;;;;;;;5.75;98.30;95442.75;5132131;27;20437;-55
2024/01/01 04:05:23;;;;;;;3.57;3.37;;;;;;;5.60;100.00;95419.59;5131917;28;20481;-55
2024/01/01 04:07:53;;;;;;;1.97;1.87;;;;;;;5.66;100.00;95442.34;5130766;28;20434;-55
2024/01/01 04:10:22;;;;;;;1.43;1.33;;;;;;;5.65;100.00;95439.94;5131649;27;21029;-55
2024/01/01 04:12:50;;;;;;;5.50;2.70;;;;;;;5.65;100.00;95437.31;5131128;28;20522;-55
2024/01/01 04:15:19;;;;;;;2.40;2.20;;;;;;;5.65;100.00;95438.09;5131410;28;20852;-55
2024/01/01 04:17:48;;;;;;;3.43;3.27;;;;;;;5.66;99.83;95438.91;5131268;28;20883;-55
2024/01/01 04:20:16;;;;;;;2.77;2.43;;;;;;;5.49;100.00;95423.06;5131815;27;20426;-55
2024/01/01 04:22:48;;;;;;;1.77;1.17;;;;;;;5.55;100.00;95432.66;5131735;28;20939;-55
2024/01/01 04:25:18;;;;;;;0.97;0.97;;;;;;;5.65;99.79;95446.00;5131760;28;20443;-55
2024/01/01 04:27:47;;;;;;;1.53;1.30;;;;;;;5.62;99.43;95450.91;5131967;27;20453;-55
2024/01/01 04:30:16;;;;;;;4.23;2.70;;;;;;;5.58;100.00;95450.59;5131449;28;21026;-55
2024/01/01 04:32:44;;;;;;;2.97;2.70;;;;;;;5.58;99.35;95452.44;5105559;28;20518;-55
2024/01/01 04:35:13;;;;;;;2.30;2.23;;;;;;;5.30;99.06;95397.22;5133186;27;20513;-55
2024/01/01 04:37:42;;;;;;;8.03;2.07;;;;;;;5.27;99.07;95395.84;5135465;27;20438;-54
2024/01/01 04:40:11;;;;;;;4.27;2.20;;;;;;;5.55;98.76;95437.13;5135026;27;21022;-55
2024/01/01 04:42:41;;;;;;;1.20;1.10;;;;;;;4.98;98.47;95354.84;5135533;27;20450;-57
2024/01/01 04:45:12;;;;;;;8.50;1.43;;;;;;;5.48;98.55;95433.84;5135624;27;20498;-56
2024/01/01 04:47:40;;;;;;;1.40;1.30;;;;;;;5.47;98.90;95437.47;5135519;27;20449;-55
2024/01/01 04:50:10;;;;;;;2.10;1.67;;;;;;;5.47;98.91;95440.91;5135332;27;20430;-56
2024/01/01 04:52:38;;;;;;;20.03;2.93;;;;;;;5.44;99.39;95440.59;5135076;27;20961;-56
2024/01/01 04:55:07;;;;;;;0.90;0.90;;;;;;;5.18;100.00;95409.59;5134915;27;20437;-56
2024/01/01 04:57:36;;;;;;;4.03;2.40;;;;;;;5.43;100.00;95445.06;5135720;27;21004;-55
2024/01/01 05:00:08;;;;;;;1.40;1.10;;;;;;;5.45;100.00;95448.25;5135227;27;20442;-55
2024/01/01 05:02:36;;;;;;;2.00;1.47;;;;;;;5.21;99.48;95411.75;5135752;27;20478;-55
2024/01/01 05:05:08;;;;;;;2.17;1.63;;;;;;;5.41;100.00;95451.56;5135020;27;20426;-56
2024/01/01 05:07:37;;;;;;;1.57;1.20;;;;;;;5.28;100.00;95483.38;5135158;27;20866;-55
2024/01/01 05:10:06;;;;;;;2.63;1.27;;;;;;;5.31;100.00;95449.56;5135024;27;20449;-56
2024/01/01 05:12:35;;;;;;;2.53;1.77;;;;;;;4.81;100.00;95404.63;5134851;27;20438;-56
2024/01/01 05:15:04;;;;;;;2.83;2.63;;;;;;;4.95;100.00;95457.72;5135212;27;20461;-55
2024/01/01 05:17:35;;;;;;;5.57;4.80;;;;;;;4.82;100.00;95461.38;5135050;27;20486;-55
2024/01/01 05:20:04;;;;;;;6.40;5.63;;;;;;;4.85;100.00;95458.31;5134846;27;20525;-56
2024/01/01 05:22:32;;;;;;;11.20;3.57;;;;;;;4.84;100.00;95466.41;5134719;27;21196;-55
2024/01/01 05:25:01;;;;;;;2.00;1.90;;;;;;;5.00;100.00;95455.22;5134793;27;20521;-56
2024/01/01 05:27:30;;;;;;;7.67;4.40;;;;;;;4.92;100.00;95463.44;5134386;27;20446;-56
2024/01/01 05:29:58;;;;;;;4.87;3.00;;;;;;;4.66;100.00;95411.38;5135062;27;20430;-56
2024/01/01 05:32:27;;;;;;;3.60;1.97;;;;;;;4.99;100.00;95461.47;5134387;27;20481;-57
2024/01/01 05:34:57;;;;;;;3.20;3.00;;;;;;;4.79;100.00;95425.09;5135358;27;20441;-56
2024/01/01 05:37:26;;;;;;;3.53;2.87;;;;;;;5.08;100.00;95466.13;5134245;27;20437;-56
2024/01/01 05:39:55;;;;;;;5.00;2.90;;;;;;;5.00;100.00;95444.69;5134541;27;20439;-56
2024/01/01 05:42:23;;;;;;;7.00;2.47;;;;;;;4.90;100.00;95452.38;5135051;27;20482;-56
2024/01/01 05:44:52;;;;;;;3.87;3.67;;;;;;;5.06;99.58;95462.94;5134445;27;20902;-56
2024/01/01 05:47:20;;;;;;;3.80;1.73;;;;;;;5.06;98.21;95452.44;5134429;27;20442;-55
2024/01/01 05:49:49;;;;;;;4.27;3.57;;;;;;;5.18;96.28;95455.06;5134433;27;20443;-55
2024/01/01 05:52:21;;;;;;;7.80;4.60;;;;;;;5.09;95.81;95440.66;5134493;27;20470;-55
2024/01/01 05:54:50;;;;;;;4.13;1.83;;;;;;;5.17;95.25;95440.31;5134342;27;20935;-55
2024/01/01 05:57:19;;;;;;;2.03;1.93;;;;;;;5.42;94.25;95456.59;5133969;27;20427;-56
2024/01/01 05:59:47;;;;;;;6.90;2.43;;;;;;;5.58;94.57;95453.22;5133498;27;20435;-56
2024/01/01 06:02:16;;;;;;;8.70;2.37;;;;;;;5.54;94.35;95438.94;5133901;27;20986;-56
2024/01/01 06:04:45;;;;;;;2.87;2.50;;;;;;;5.75;94.41;95458.53;5134399;27;20799;-56
2024/01/01 06:07:13;;;;;;;1.73;1.23;;;;;;;5.82;94.10;95458.41;5133801;27;20835;-57
2024/01/01 06:09:44;;;;;;;9.00;2.43;;;;;;;5.83;96.96;95455.53;5133011;27;20449;-57
2024/01/01 06:12:12;;;;;;;2.00;1.90;;;;;;;5.98;96.85;95458.44;5130447;27;20523;-56
2024/01/01 06:14:41;;;;;;;1.20;1.20;;;;;;;5.95;97.75;95452.84;5134137;27;20431;-56
2024/01/01 06:17:09;;;;;;;1.63;1.30;;;;;;;6.13;97.64;95453.44;5133801;27;20443;-56
2024/01/01 06:19:38;;;;;;;3.83;3.73;;;;;;;6.14;97.23;95465.56;5133595;27;20458;-56
2024/01/01 06:22:07;;;;;;;2.10;2.00;;;;;;;6.06;97.56;95449.38;5133538;27;21021;-56
2024/01/01 06:24:35;;;;;;;2.40;2.20;;;;;;;6.27;96.31;95452.09;5134081;27;20439;-56
2024/01/01 06:27:06;;;;;;;4.10;2.00;;;;;;;6.34;95.97;95463.28;5133053;27;20431;-57
2024/01/01 06:29:34;;;;;;;1.90;1.80;;;;;;;6.49;95.45;95464.53;5133193;27;20435;-55
2024/01/01 06:32:03;;;;;;;3.03;2.90;;;;;;;6.51;95.66;95462.47;5132867;27;20523;-56
2024/01/01 06:34:32;;;;;;;4.33;4.20;;;;;;;6.30;97.13;95462.16;5133230;27;20864;-57
2024/01/01 06:37:00;;;;;;;2.30;2.17;;;;;;;5.82;98.30;95408.44;5132612;27;20438;-57
2024/01/01 06:39:29;;;;;;;6.57;5.27;;;;;;;6.38;98.15;95460.94;5122962;27;20935;-56
2024/01/01 06:41:58;;;;;;;2.80;2.70;;;;;;;6.44;94.84;95464.47;5130943;27;20496;-57
2024/01/01 06:44:28;;;;;;;2.30;2.20;;;;;;;6.71;91.34;95468.03;5133621;27;20443;-56
2024/01/01 06:46:56;;;;;;;3.27;2.87;;;;;;;6.59;89.55;95469.97;5132577;27;20438;-57
2024/01/01 06:49:25;;;;;;;16.60;3.10;;;;;;;6.69;88.66;95472.75;5133093;27;20470;-56
2024/01/01 06:51:57;;;;;;;4.50;4.20;;;;;;;6.69;87.17;95480.66;5131769;27;20546;-56
2024/01/01 06:54:26;;;;;;;13.13;5.83;;;;;;;6.51;88.26;95478.25;5132945;27;20468;-57
2024/01/01 06:56:55;;;;;;;4.47;4.23;;;;;;;6.55;89.12;95480.19;5132611;27;20435;-57
2024/01/01 06:59:29;;;;;;;6.03;4.07;;;;;;;6.51;89.72;95459.84;5132623;27;20438;-57
2024/01/01 07:01:59;;;;;;;4.67;4.37;;;;;;;6.66;89.91;95476.66;5132544;27;20475;-57
2024/01/01 07:04:28;;;;;;;6.80;3.70;;;;;;;6.73;91.61;95474.66;5116467;27;20468;-57
2024/01/01 07:06:57;;;;;;;5.07;4.77;;;;;;;6.63;92.27;95465.84;5125208;27;20438;-56
2024/01/01 07:09:25;;;;;;;11.03;6.87;;;;;;;6.78;92.44;95448.38;5112795;27;20497;-58
2024/01/01 07:11:57;;;;;;;8.37;6.30;;;;;;;6.63;94.53;95416.56;5112328;28;20431;-58
2024/01/01 07:14:26;;;;;;;6.53;5.93;;;;;;;6.99;96.02;95468.72;5112862;28;20447;-57
2024/01/01 07:16:56;;;;;;;5.33;3.50;;;;;;;6.91;98.23;95463.88;5132240;27;20435;-57
2024/01/01 07:19:25;;;;;;;9.43;5.50;;;;;;;6.94;99.74;95467.84;5132745;27;20439;-58
2024/01/01 07:21:53;;;;;;;11.77;5.40;;;;;;;7.14;97.01;95462.06;5132996;27;20487;-58
2024/01/01 07:24:22;;;;;;;5.30;3.23;;;;;;;7.19;98.52;95465.56;5132668;27;20434;-57
2024/01/01 07:26:50;;;;;;;5.00;4.47;;;;;;;7.10;100.00;95469.66;5124078;27;20440;-56
2024/01/01 07:29:19;;;;;;;4.83;4.37;;;;;;;7.21;100.00;95463.47;5127981;27;20427;-57
2024/01/01 07:31:47;;;;;;;4.23;3.03;;;;;;;7.23;100.00;95460.59;5133126;27;20438;-57
2024/01/01 07:34:19;;;;;;;4.30;3.90;;;;;;;7.33;100.00;95464.16;5120147;27;20445;-57
2024/01/01 07:36:48;;;;;;;1.93;1.83;;;;;;;7.67;100.00;95459.53;5132416;27;20473;-57
2024/01/01 07:39:19;;;;;;;4.47;4.10;;;;;;;7.11;100.00;95442.25;5132186;27;20435;-57
2024/01/01 07:41:48;;;;;;;8.17;4.13;;;;;;;7.46;98.17;95415.53;5132012;27;20512;-57
2024/01/01 07:44:16;;;;;;;4.90;4.60;;;;;;;7.64;93.22;95441.56;5132704;27;20434;-57
2024/01/01 07:46:47;;;;;;;4.30;4.00;;;;;;;7.50;92.72;95396.34;5131502;27;20477;-57
2024/01/01 07:49:17;;;;;;;4.03;2.13;;;;;;;7.39;95.52;95420.19;5132359;27;20434;-57
2024/01/01 07:51:46;;;;;;;1.50;1.40;;;;;;;7.55;95.66;95414.03;5131821;27;20494;-56
2024/01/01 07:54:15;;;;;;;1.43;1.40;;;;;;;7.96;94.97;95442.44;5131630;27;20434;-58
2024/01/01 07:56:44;;;;;;;4.10;2.40;;;;;;;8.01;94.77;95433.78;5126988;27;20526;-56
2024/01/01 07:59:12;;;;;;;1.90;1.23;;;;;;;8.39;92.54;95428.34;5111822;28;20431;-56
2024/01/01 08:01:41;;;;;;;8.30;4.07;;;;;;;8.22;90.98;95435.56;5122457;28;20435;-56
2024/01/01 08:04:10;;;;;;;2.40;2.30;;;;;;;8.03;91.37;95432.47;5132001;28;20466;-56
2024/01/01 08:06:40;;;;;;;2.50;2.17;;;;;;;7.57;91.85;95388.22;5120636;27;20439;-56
2024/01/01 08:09:09;;;;;;;2.80;2.60;;;;;;;7.89;92.92;95435.78;5126493;27;20530;-56
2024/01/01 08:11:38;;;;;;;2.93;2.83;;;;;;;8.62;90.55;95453.59;5127870;27;20461;-57
2024/01/01 08:14:07;;;;;;;5.10;4.30;;;;;;;8.20;89.65;95440.28;5109537;27;20435;-56
2024/01/01 08:16:36;;;;;;;2.93;2.70;;;;;;;8.23;92.84;95450.34;5136234;27;20533;-57
2024/01/01 08:19:06;;;;;;;8.00;2.53;;;;;;;8.02;90.56;95416.91;5135644;27;20434;-57
2024/01/01 08:21:35;;;;;;;5.00;3.10;;;;;;;8.26;93.09;95448.03;5135665;27;20988;-56
2024/01/01 08:24:06;;;;;;;7.70;4.57;;;;;;;8.55;93.01;95455.66;5136310;27;21004;-57
2024/01/01 08:26:35;;;;;;;5.07;4.67;;;;;;;8.64;89.44;95422.44;5136083;27;20434;-57
2024/01/01 08:29:03;;;;;;;4.03;3.17;;;;;;;8.95;87.41;95445.38;5136441;27;20465;-57
2024/01/01 08:31:32;;;;;;;4.20;4.00;;;;;;;8.67;88.42;95435.94;5136001;27;20525;-57
2024/01/01 08:34:01;;;;;;;6.77;4.73;;;;;;;8.56;90.15;95436.91;5136003;27;20434;-57
2024/01/01 08:36:30;;;;;;;2.00;1.90;;;;;;;9.47;85.30;95435.56;5135186;27;20438;-57
2024/01/01 08:38:58;;;;;;;5.63;2.63;;;;;;;9.21;84.22;95431.22;5135989;27;20442;-57
2024/01/01 08:41:28;;;;;;;2.33;2.23;;;;;;;9.30;84.10;95440.28;5134159;27;20517;-57
2024/01/01 08:43:57;;;;;;;6.83;2.10;;;;;;;9.38;84.05;95439.78;5135342;27;20914;-57
2024/01/01 08:46:26;;;;;;;5.50;4.93;;;;;;;9.37;84.18;95432.09;5135107;27;20446;-57
2024/01/01 08:48:55;;;;;;;10.20;2.60;;;;;;;9.76;84.00;95433.28;5124915;27;20491;-56
2024/01/01 08:51:24;;;;;;;3.67;3.40;;;;;;;10.36;81.14;95418.56;5135585;27;20920;-57
2024/01/01 08:53:53;;;;;;;20.63;4.20;;;;;;;11.21;76.32;95425.59;5135877;27;20441;-59
2024/01/01 08:56:21;;;;;;;6.90;4.47;;;;;;;12.21;71.85;95427.00;5135847;27;20776;-58
2024/01/01 08:58:51;;;;;;;13.17;6.63;;;;;;;12.88;68.72;95410.22;5135388;27;20434;-57
2024/01/01 09:01:20;;;;;;;6.13;2.63;;;;;;;13.58;64.94;95408.72;5135179;27;20430;-57
2024/01/01 09:03:49;;;;;;;7.53;4.63;;;;;;;14.11;64.00;95401.31;5135184;27;20476;-56
2024/01/01 09:06:17;;;;;;;4.53;2.23;;;;;;;14.12;61.41;95360.25;5134355;27;20943;-56
2024/01/01 09:08:46;;;;;;;2.47;2.37;;;;;;;14.51;60.69;95395.41;5135335;27;20457;-55
2024/01/01 09:11:15;;;;;;;4.40;4.00;;;;;;;14.67;60.71;95390.59;5134876;27;21026;-55
2024/01/01 09:13:44;;;;;;;6.43;3.90;;;;;;;15.06;58.39;95366.16;5134177;27;20473;-56
2024/01/01 09:16:14;;;;;;;3.40;2.80;;;;;;;14.71;58.23;95308.91;5135842;27;20462;-56
2024/01/01 09:18:42;;;;;;;6.00;3.17;;;;;;;15.28;56.77;95360.91;5134510;27;20438;-57
2024/01/01 09:21:15;;;;;;;3.77;3.50;;;;;;;15.31;56.26;95373.66;5134187;27;20441;-57
2024/01/01 09:23:43;;;;;;;5.70;2.63;;;;;;;15.47;56.63;95383.00;5134659;27;20470;-58
2024/01/01 09:26:14;;;;;;;4.00;3.07;;;;;;;14.66;57.56;95380.22;5134502;27;20442;-58
2024/01/01 09:28:43;;;;;;;3.00;2.60;;;;;;;14.47;58.51;95375.72;5133804;27;20430;-59
2024/01/01 09:31:13;;;;;;;5.40;3.43;;;;;;;14.15;59.39;95370.34;5135342;27;20517;-58
2024/01/01 09:33:42;;;;;;;2.50;2.30;;;;;;;14.16;59.80;95358.59;5134821;27;20465;-57
2024/01/01 09:36:13;;;;;;;3.67;3.47;;;;;;;14.23;59.14;95368.88;5135191;27;20445;-59
2024/01/01 09:38:43;;;;;;;3.93;2.23;;;;;;;15.02;57.18;95335.81;5134619;27;20438;-59
2024/01/01 09:41:12;;;;;;;2.00;1.77;;;;;;;16.75;54.50;95361.13;5133853;27;20457;-59
2024/01/01 09:43:42;;;;;;;2.23;2.13;;;;;;;17.07;53.12;95350.13;5134459;27;20480;-58
2024/01/01 09:46:13;;;;;;;2.23;2.10;;;;;;;17.35;52.73;95338.09;5135038;27;20508;-59
2024/01/01 09:48:43;;;;;;;1.60;1.47;;;;;;;18.15;50.43;95334.91;5134199;27;20922;-60
2024/01/01 09:51:11;;;;;;;2.67;2.47;;;;;;;17.32;52.36;95337.91;5134776;27;20513;-61
2024/01/01 09:53:40;;;;;;;3.47;2.50;;;;;;;16.87;52.86;95343.41;5093767;28;20886;-60
2024/01/01 09:56:09;;;;;;;4.43;2.10;;;;;;;16.12;53.95;95343.34;5093512;28;20863;-59
2024/01/01 09:58:41;;;;;;;12.60;3.10;;;;;;;16.13;54.12;95334.25;5093513;28;20440;-60
2024/01/01 10:01:12;;;;;;;1.63;1.53;;;;;;;16.86;53.42;95322.28;5093327;28;20468;-60
2024/01/01 10:03:42;;;;;;;1.47;1.17;;;;;;;17.38;52.38;95328.66;5093343;28;20470;-60
2024/01/01 10:06:12;;;;;;;1.80;1.70;;;;;;;17.09;50.85;95264.91;5093450;28;20467;-59
2024/01/01 10:08:41;;;;;;;2.80;2.30;;;;;;;17.87;51.14;95317.56;5093354;28;20437;-60
2024/01/01 10:11:18;;;;;;;2.30;2.20;;;;;;;18.05;49.80;95327.19;5092684;28;20436;-60
2024/01/01 10:13:49;;;;;;;2.00;1.33;;;;;;;18.40;49.36;95318.00;5093205;28;20444;-60
2024/01/01 10:16:26;;;;;;;3.23;2.93;;;;;;;18.49;49.00;95318.03;5092461;28;20924;-60
2024/01/01 10:18:57;;;;;;;3.90;1.63;;;;;;;18.68;47.44;95272.03;5092353;28;20960;-59
2024/01/01 10:21:30;;;;;;;0.70;0.50;;;;;;;18.88;47.03;95300.84;5093397;28;20455;-60
2024/01/01 10:24:12;;;;;;;2.37;2.27;;;;;;;18.55;47.17;95292.59;5092723;28;20470;-58
2024/01/01 10:27:02;;;;;;;1.43;1.03;;;;;;;17.92;49.20;95284.41;5092417;28;20436;-59
2024/01/01 10:29:36;;;;;;;1.87;1.77;;;;;;;17.06;50.52;95286.94;5092267;28;20436;-60
2024/01/01 10:32:06;;;;;;;1.50;1.40;;;;;;;17.13;49.95;95269.31;5090508;28;20497;-60
2024/01/01 10:34:37;;;;;;;3.37;1.60;;;;;;;16.12;52.18;95281.06;5092520;28;20437;-59
2024/01/01 10:37:07;;;;;;;2.60;1.63;;;;;;;16.17;52.36;95279.06;5092350;28;20451;-58
2024/01/01 10:39:39;;;;;;;2.77;2.57;;;;;;;15.53;52.92;95242.13;5092142;28;20453;-58
2024/01/01 10:42:12;;;;;;;2.30;2.10;;;;;;;15.58;53.24;95255.38;5091367;28;20436;-58
2024/01/01 10:44:41;;;;;;;2.13;1.23;;;;;;;15.85;53.67;95272.09;5092759;28;20498;-57
2024/01/01 10:47:11;;;;;;;0.80;0.80;;;;;;;15.59;54.08;95268.41;5091582;28;20432;-57
2024/01/01 10:49:52;;;;;;;1.20;1.10;;;;;;;15.29;53.37;95234.31;5092724;28;20520;-56
2024/01/01 10:52:54;;;;;;;2.10;0.50;;;;;;;15.68;53.29;95255.13;5092571;27;20497;-58
2024/01/01 10:55:48;;;;;;;0.80;0.80;;;;;;;15.88;52.92;95246.63;5123857;27;20438;-58
2024/01/01 10:58:25;;;;;;;0.70;0.70;;;;;;;15.96;53.23;95223.75;5133161;27;20873;-57
2024/01/01 11:01:04;;;;;;;2.90;2.60;;;;;;;15.23;54.62;95241.66;5123150;27;20431;-57
2024/01/01 11:03:35;;;;;;;1.10;1.00;;;;;;;15.08;55.08;95222.50;5112989;27;20507;-57
2024/01/01 11:06:24;;;;;;;1.10;0.70;;;;;;;15.40;54.97;95232.22;5133004;27;20430;-58
2024/01/01 11:08:53;;;;;;;1.23;1.13;;;;;;;14.55;57.28;95240.91;5131853;27;20439;-59
2024/01/01 11:11:23;;;;;;;2.67;2.47;;;;;;;14.22;57.58;95228.72;5132900;27;20517;-59
2024/01/01 11:13:55;;;;;;;2.87;2.77;;;;;;;14.55;57.30;95243.56;5132072;27;20842;-59
2024/01/01 11:16:25;;;;;;;1.33;1.27;;;;;;;14.47;57.81;95222.94;5132825;27;20442;-59
2024/01/01 11:18:54;;;;;;;1.90;0.87;;;;;;;14.72;57.42;95237.66;5132906;27;20499;-59
2024/01/01 11:21:32;;;;;;;3.73;1.37;;;;;;;13.98;61.12;95229.63;5131982;27;20451;-59
2024/01/01 11:24:02;;;;;;;1.17;1.07;;;;;;;13.62;59.79;95159.38;5129483;27;20517;-58
2024/01/01 11:26:50;;;;;;;3.13;1.63;;;;;;;13.58;60.38;95222.28;5131966;27;20438;-59
2024/01/01 11:29:28;;;;;;;4.77;1.97;;;;;;;12.96;61.62;95146.25;5132451;27;20446;-58
2024/01/01 11:32:04;;;;;;;3.63;3.00;;;;;;;13.47;61.22;95220.06;5132098;27;20972;-59
2024/01/01 11:34:34;;;;;;;3.43;3.33;;;;;;;13.21;62.03;95206.31;5130511;27;20498;-58
2024/01/01 11:37:22;;;;;;;1.13;1.10;;;;;;;13.35;61.78;95200.00;5131906;27;20433;-58
2024/01/01 11:40:00;;;;;;;2.73;1.53;;;;;;;13.44;61.37;95143.44;5124588;27;21037;-57
2024/01/01 11:42:29;;;;;;;1.27;1.17;;;;;;;13.72;61.21;95185.03;5129380;27;20435;-59
2024/01/01 11:45:11;;;;;;;1.60;1.50;;;;;;;13.94;60.99;95193.19;5131790;27;20462;-57
2024/01/01 11:47:41;;;;;;;0.70;0.60;;;;;;;13.90;61.38;95187.66;5132487;27;20427;-57
2024/01/01 11:50:12;;;;;;;6.83;1.23;;;;;;;13.63;62.26;95187.59;5131370;27;20450;-57